Time;durP1;ratioP1;P1;durP2;ratioP2;P2;SDS_P1;SDS_P2;PMS_P1;PMS_P2;Temp;Humidity;BMP_temperature;BMP_pressure;BME280_temperature;BME280_humidity;BME280_pressure;Samples;Min_cycle;Max_cycle;Signal;HPM_P1;HPM_P2
2020/12/12 00:00:30;;;;;;;1.20;0.70;;;4.30;82.60;;;;;;5096573;28;20473;-70
2020/12/12 00:02:56;;;;;;;1.13;0.63;;;4.30;82.20;;;;;;5096345;28;20016;-70
2020/12/12 00:05:21;;;;;;;1.25;0.80;;;4.30;80.00;;;;;;5096853;28;20028;-70
2020/12/12 00:07:47;;;;;;;1.10;0.88;;;4.50;78.00;;;;;;5096275;28;20105;-70
2020/12/12 00:10:13;;;;;;;1.25;0.90;;;4.60;77.50;;;;;;5098580;28;20036;-70
2020/12/12 00:12:38;;;;;;;1.52;0.80;;;4.70;76.80;;;;;;5099989;28;20104;-70
2020/12/12 00:15:05;;;;;;;3.38;1.00;;;4.80;77.30;;;;;;5100121;28;20028;-70
2020/12/12 00:17:31;;;;;;;2.05;0.98;;;4.80;77.30;;;;;;5099872;28;20024;-70
2020/12/12 00:19:56;;;;;;;1.88;0.98;;;4.90;78.70;;;;;;5099885;28;20080;-70
2020/12/12 00:22:22;;;;;;;2.88;1.15;;;4.90;78.70;;;;;;5099821;28;20035;-70
2020/12/12 00:24:48;;;;;;;1.67;1.00;;;4.90;78.20;;;;;;5099451;28;20056;-70
2020/12/12 00:27:13;;;;;;;2.85;1.63;;;4.90;77.90;;;;;;5099919;28;20036;-70
2020/12/12 00:29:39;;;;;;;2.55;1.48;;;4.90;78.80;;;;;;5099790;28;20327;-70
2020/12/12 00:32:04;;;;;;;3.20;2.20;;;4.80;79.00;;;;;;5081677;28;20051;-70
2020/12/12 00:34:30;;;;;;;4.05;2.72;;;4.70;80.70;;;;;;5099529;28;20374;-70
2020/12/12 00:36:56;;;;;;;3.00;2.30;;;4.70;80.20;;;;;;5099545;28;20032;-70
2020/12/12 00:39:22;;;;;;;2.45;1.67;;;4.70;81.60;;;;;;5081580;28;20366;-70
2020/12/12 00:41:48;;;;;;;3.50;1.85;;;4.60;80.00;;;;;;5081562;28;20017;-70
2020/12/12 00:44:15;;;;;;;5.32;1.75;;;4.60;79.20;;;;;;5099582;28;20032;-70
2020/12/12 00:46:41;;;;;;;2.08;1.80;;;4.60;79.40;;;;;;5099363;28;20020;-70
2020/12/12 00:49:08;;;;;;;2.47;1.83;;;4.60;79.30;;;;;;5099368;28;20035;-70
2020/12/12 00:51:34;;;;;;;5.03;2.30;;;4.50;80.40;;;;;;5099265;28;20365;-70
2020/12/12 00:54:00;;;;;;;6.53;4.65;;;4.50;80.50;;;;;;5081280;28;21385;-70
2020/12/12 00:56:26;;;;;;;2.90;2.35;;;4.40;81.90;;;;;;5081249;28;20039;-70
2020/12/12 00:58:51;;;;;;;5.80;5.00;;;4.40;83.10;;;;;;5099116;28;20039;-70
2020/12/12 01:01:18;;;;;;;7.18;5.78;;;4.30;83.60;;;;;;5099166;28;20051;-70
2020/12/12 01:03:44;;;;;;;6.03;5.07;;;4.30;84.40;;;;;;5098985;28;20396;-70
2020/12/12 01:06:17;;;;;;;6.93;5.15;;;4.30;84.60;;;;;;5099028;28;20050;-70
2020/12/12 01:08:44;;;;;;;2.92;2.15;;;4.30;85.20;;;;;;5098939;28;20067;-70
2020/12/12 01:11:11;;;;;;;2.97;2.15;;;4.40;81.60;;;;;;5098890;28;20111;-70
2020/12/12 01:13:37;;;;;;;3.28;2.58;;;4.30;79.80;;;;;;5098827;28;20028;-69
2020/12/12 01:16:11;;;;;;;3.00;2.20;;;4.30;79.70;;;;;;5098860;28;20035;-70
2020/12/12 01:18:37;;;;;;;2.80;2.08;;;4.20;79.60;;;;;;5098803;28;20024;-70
2020/12/12 01:21:04;;;;;;;3.00;2.20;;;4.30;80.00;;;;;;5097691;28;20020;-70
2020/12/12 01:23:30;;;;;;;4.68;3.95;;;4.20;80.30;;;;;;5098718;28;20431;-70
2020/12/12 01:25:56;;;;;;;6.30;4.25;;;4.30;81.60;;;;;;5098363;28;20048;-70
2020/12/12 01:28:22;;;;;;;6.35;4.63;;;4.30;82.40;;;;;;5098569;28;20042;-70
2020/12/12 01:30:49;;;;;;;4.75;4.00;;;4.30;83.40;;;;;;5080589;28;20103;-70
2020/12/12 01:33:15;;;;;;;5.20;3.85;;;4.30;83.30;;;;;;5080453;28;20020;-70
2020/12/12 01:35:42;;;;;;;5.78;4.20;;;4.20;84.00;;;;;;5098389;28;20138;-70
2020/12/12 01:38:09;;;;;;;6.10;4.63;;;4.10;84.40;;;;;;5098387;28;20020;-70
2020/12/12 01:40:38;;;;;;;5.65;4.97;;;4.10;85.00;;;;;;5080386;28;20024;-70
2020/12/12 01:43:04;;;;;;;5.53;4.45;;;4.00;86.20;;;;;;5098218;28;20031;-70
2020/12/12 01:45:30;;;;;;;9.20;6.30;;;4.00;86.60;;;;;;5098152;28;20427;-70
2020/12/12 01:47:57;;;;;;;8.75;5.95;;;3.90;86.80;;;;;;5097999;28;20328;-70
2020/12/12 01:50:24;;;;;;;8.00;6.20;;;3.90;87.10;;;;;;5098145;28;20419;-71
2020/12/12 01:52:52;;;;;;;8.65;7.00;;;3.90;87.20;;;;;;5080066;28;20024;-71
2020/12/12 01:55:21;;;;;;;7.40;6.38;;;3.90;87.70;;;;;;5098248;28;20312;-70
2020/12/12 01:57:48;;;;;;;7.30;6.18;;;3.90;88.20;;;;;;5097939;28;20113;-70
2020/12/12 02:00:14;;;;;;;8.23;6.97;;;3.90;88.00;;;;;;5080030;28;20415;-70
2020/12/12 02:02:46;;;;;;;8.20;6.70;;;3.90;88.00;;;;;;5097917;28;20093;-70
2020/12/12 02:05:38;;;;;;;8.93;6.32;;;3.80;87.90;;;;;;5097837;28;20154;-70
2020/12/12 02:08:15;;;;;;;6.53;5.80;;;3.80;88.00;;;;;;5097744;28;20035;-70
2020/12/12 02:10:45;;;;;;;7.80;6.10;;;3.70;88.00;;;;;;5097845;28;20044;-70
2020/12/12 02:13:13;;;;;;;6.82;5.30;;;3.70;88.00;;;;;;5097713;28;20024;-70
2020/12/12 02:15:39;;;;;;;5.70;4.63;;;3.60;87.80;;;;;;5097623;28;20027;-70
2020/12/12 02:18:24;;;;;;;5.63;4.57;;;3.50;87.60;;;;;;5097829;28;20066;-70
2020/12/12 02:20:51;;;;;;;5.32;4.32;;;3.50;88.00;;;;;;5098190;28;20023;-70
2020/12/12 02:23:18;;;;;;;5.22;3.60;;;3.50;87.90;;;;;;5097633;28;20361;-70
2020/12/12 02:25:44;;;;;;;4.72;3.47;;;3.50;87.20;;;;;;5097246;28;20062;-70
2020/12/12 02:28:12;;;;;;;4.40;3.17;;;3.60;87.00;;;;;;5097490;28;20036;-70
2020/12/12 02:30:38;;;;;;;3.88;2.30;;;3.70;86.70;;;;;;5097393;28;20016;-70
2020/12/12 02:33:04;;;;;;;2.55;1.90;;;3.70;86.50;;;;;;5097235;28;20123;-70
2020/12/12 02:35:29;;;;;;;2.20;1.90;;;3.80;86.00;;;;;;5079285;28;20051;-70
2020/12/12 02:37:55;;;;;;;2.45;2.05;;;3.80;86.10;;;;;;5097264;28;20023;-70
2020/12/12 02:40:21;;;;;;;2.25;1.65;;;3.80;86.80;;;;;;5097257;28;20293;-70
2020/12/12 02:42:46;;;;;;;4.22;2.10;;;3.80;85.40;;;;;;5097438;28;20028;-70
2020/12/12 02:45:14;;;;;;;2.55;1.50;;;3.80;86.10;;;;;;5097220;28;20103;-70
2020/12/12 02:47:41;;;;;;;4.13;2.95;;;3.80;85.60;;;;;;5097083;28;20051;-70
2020/12/12 02:50:11;;;;;;;4.65;3.75;;;3.90;85.90;;;;;;5097180;28;20020;-70
2020/12/12 02:52:40;;;;;;;6.85;5.00;;;3.90;85.60;;;;;;5097166;28;20025;-70
2020/12/12 02:55:07;;;;;;;7.55;6.13;;;3.80;86.20;;;;;;5097443;28;20027;-71
2020/12/12 02:57:35;;;;;;;7.25;6.47;;;3.80;87.20;;;;;;5096945;28;20422;-72
2020/12/12 03:00:01;;;;;;;3.65;3.20;;;3.70;87.90;;;;;;5097002;28;20090;-72
2020/12/12 03:02:26;;;;;;;3.20;1.90;;;3.70;88.60;;;;;;5097129;28;20029;-72
2020/12/12 03:04:55;;;;;;;3.45;2.67;;;3.70;87.50;;;;;;5096835;28;20020;-72
2020/12/12 03:07:20;;;;;;;3.10;2.67;;;3.60;87.30;;;;;;5096817;28;20024;-72
2020/12/12 03:09:48;;;;;;;4.40;3.38;;;3.60;87.00;;;;;;5097072;28;20027;-70
2020/12/12 03:12:17;;;;;;;3.58;3.03;;;3.60;86.80;;;;;;5097015;28;20056;-70
2020/12/12 03:14:44;;;;;;;6.35;4.30;;;3.70;87.00;;;;;;5096752;28;20347;-70
2020/12/12 03:17:10;;;;;;;4.45;3.72;;;3.70;87.30;;;;;;5096739;28;20020;-71
2020/12/12 03:19:37;;;;;;;5.28;4.15;;;3.70;87.50;;;;;;5096754;28;20404;-72
2020/12/12 03:22:03;;;;;;;4.43;3.65;;;3.70;87.70;;;;;;5096708;28;20081;-70
2020/12/12 03:24:28;;;;;;;6.47;4.93;;;3.80;87.70;;;;;;5096481;28;20024;-72
2020/12/12 03:26:54;;;;;;;5.95;3.95;;;3.80;87.20;;;;;;5078712;28;20080;-70
2020/12/12 03:29:20;;;;;;;3.83;2.92;;;3.90;87.30;;;;;;5096642;28;20030;-71
2020/12/12 03:31:45;;;;;;;4.18;2.38;;;3.90;86.80;;;;;;5096665;28;20047;-72
2020/12/12 03:34:11;;;;;;;3.88;2.00;;;4.00;86.50;;;;;;5078657;28;20446;-72
2020/12/12 03:36:36;;;;;;;4.40;2.20;;;4.00;86.60;;;;;;5096600;28;20105;-71
2020/12/12 03:39:02;;;;;;;2.13;1.33;;;4.00;86.70;;;;;;5078783;28;20425;-72
2020/12/12 03:41:30;;;;;;;1.90;1.23;;;4.00;86.20;;;;;;5096545;28;20101;-72
2020/12/12 03:43:58;;;;;;;2.10;1.35;;;4.00;86.20;;;;;;5096541;28;20051;-72
2020/12/12 03:46:24;;;;;;;1.50;1.10;;;4.10;85.90;;;;;;5100537;28;20028;-72
2020/12/12 03:48:52;;;;;;;1.98;1.45;;;4.10;86.20;;;;;;5100417;28;20525;-72
2020/12/12 03:51:17;;;;;;;1.95;1.20;;;4.20;86.10;;;;;;5100448;28;20020;-72
2020/12/12 03:53:43;;;;;;;2.10;1.30;;;4.20;85.90;;;;;;5100412;28;20471;-70
2020/12/12 03:56:09;;;;;;;3.83;1.30;;;4.10;85.90;;;;;;5100385;28;20316;-70
2020/12/12 03:58:34;;;;;;;1.40;1.20;;;4.10;85.90;;;;;;5100367;28;20032;-70
2020/12/12 04:01:00;;;;;;;1.67;1.08;;;4.20;86.20;;;;;;5100255;28;20056;-70
2020/12/12 04:03:26;;;;;;;1.08;0.70;;;4.20;85.90;;;;;;5082191;28;20020;-70
2020/12/12 04:05:52;;;;;;;0.90;0.70;;;4.20;85.30;;;;;;5100423;28;20028;-70
2020/12/12 04:08:18;;;;;;;1.15;0.57;;;4.20;85.40;;;;;;5100096;28;20056;-70
2020/12/12 04:10:44;;;;;;;1.10;0.80;;;4.20;85.60;;;;;;5100165;28;20074;-70
2020/12/12 04:13:09;;;;;;;1.30;0.90;;;4.20;83.70;;;;;;5082170;28;20416;-70
2020/12/12 04:15:35;;;;;;;1.88;1.17;;;4.20;82.80;;;;;;5100090;28;20059;-70
2020/12/12 04:18:01;;;;;;;1.67;1.23;;;4.10;81.80;;;;;;5099966;28;20021;-70
2020/12/12 04:20:27;;;;;;;1.58;1.35;;;4.20;80.90;;;;;;5099941;28;20055;-70
2020/12/12 04:22:52;;;;;;;2.47;1.75;;;4.20;80.20;;;;;;5099863;28;20032;-70
2020/12/12 04:25:20;;;;;;;2.58;1.23;;;4.10;79.50;;;;;;5099543;28;20133;-70
2020/12/12 04:27:46;;;;;;;2.20;1.50;;;4.10;79.90;;;;;;5099622;28;20031;-71
2020/12/12 04:30:12;;;;;;;2.50;1.45;;;4.10;79.80;;;;;;5100001;28;20020;-72
2020/12/12 04:32:38;;;;;;;1.73;1.00;;;4.10;78.70;;;;;;5099679;28;20032;-70
2020/12/12 04:35:07;;;;;;;1.70;1.30;;;4.20;78.80;;;;;;5099504;28;20103;-71
2020/12/12 04:37:32;;;;;;;1.70;1.40;;;4.20;78.60;;;;;;5081572;28;20024;-72
2020/12/12 04:39:58;;;;;;;1.23;0.80;;;4.20;78.60;;;;;;5099704;28;20085;-72
2020/12/12 04:42:27;;;;;;;2.75;1.48;;;4.20;79.50;;;;;;5099627;28;20034;-72
2020/12/12 04:44:52;;;;;;;2.45;1.10;;;4.30;79.60;;;;;;5099411;28;20324;-70
2020/12/12 04:47:18;;;;;;;1.30;0.95;;;4.30;80.00;;;;;;5099351;28;20021;-70
2020/12/12 04:49:44;;;;;;;1.27;1.00;;;4.30;80.30;;;;;;5099460;28;20047;-70
2020/12/12 04:52:14;;;;;;;1.77;1.02;;;4.30;81.20;;;;;;5081268;28;20020;-70
2020/12/12 04:54:42;;;;;;;1.48;1.10;;;4.40;81.40;;;;;;5099542;28;20073;-71
2020/12/12 04:57:08;;;;;;;1.95;1.35;;;4.30;81.20;;;;;;5099070;28;20443;-72
2020/12/12 04:59:34;;;;;;;1.98;1.40;;;4.30;82.20;;;;;;5099465;28;20071;-70
2020/12/12 05:02:01;;;;;;;2.25;1.55;;;4.30;81.40;;;;;;5099140;28;20347;-70
2020/12/12 05:04:27;;;;;;;3.05;1.60;;;4.20;81.30;;;;;;5099008;28;20122;-70
2020/12/12 05:06:53;;;;;;;3.35;1.65;;;4.10;81.80;;;;;;5099050;28;20089;-70
2020/12/12 05:09:21;;;;;;;2.20;1.83;;;4.10;82.30;;;;;;5099202;28;20048;-71
2020/12/12 05:11:48;;;;;;;1.90;1.45;;;4.10;82.60;;;;;;5080928;28;20077;-70
2020/12/12 05:14:16;;;;;;;1.90;1.40;;;4.10;82.30;;;;;;5098818;28;20024;-71
2020/12/12 05:16:45;;;;;;;1.92;1.58;;;4.00;82.30;;;;;;5098783;28;20020;-72
2020/12/12 05:19:12;;;;;;;2.38;1.40;;;4.00;82.70;;;;;;5098950;28;20434;-72
2020/12/12 05:21:48;;;;;;;1.42;1.20;;;4.00;83.30;;;;;;5098671;28;20070;-72
2020/12/12 05:24:14;;;;;;;;;;;4.00;83.80;;;;;;5099541;28;20097;-72
2020/12/12 05:26:43;;;;;;;2.00;0.80;;;4.10;83.70;;;;;;5098498;28;19927;-71
2020/12/12 05:29:11;;;;;;;2.10;1.17;;;4.20;83.60;;;;;;5098515;28;20027;-72
2020/12/12 05:31:37;;;;;;;3.33;1.40;;;4.20;83.80;;;;;;5098484;28;20025;-70
2020/12/12 05:34:14;;;;;;;2.60;1.67;;;4.20;83.20;;;;;;5098562;28;20012;-71
2020/12/12 05:36:42;;;;;;;2.10;1.73;;;4.20;83.10;;;;;;5098687;28;20030;-70
2020/12/12 05:39:13;;;;;;;2.80;1.83;;;4.20;83.20;;;;;;5098683;28;20419;-70
2020/12/12 05:41:39;;;;;;;3.65;1.67;;;4.20;83.30;;;;;;5098356;28;20039;-69
2020/12/12 05:44:05;;;;;;;1.80;1.35;;;4.20;82.90;;;;;;5080223;28;20020;-71
2020/12/12 05:46:31;;;;;;;4.45;1.65;;;4.20;83.10;;;;;;5098212;28;20024;-72
2020/12/12 05:48:58;;;;;;;7.53;3.65;;;4.10;84.40;;;;;;5098313;28;20024;-72
2020/12/12 05:51:28;;;;;;;11.02;4.72;;;4.10;84.60;;;;;;5098152;28;20053;-72
2020/12/12 05:53:55;;;;;;;4.95;3.40;;;4.10;85.20;;;;;;5080058;28;20032;-72
2020/12/12 05:56:22;;;;;;;5.65;3.90;;;4.10;83.90;;;;;;5098062;28;20553;-72
2020/12/12 05:58:52;;;;;;;4.22;3.80;;;4.10;83.40;;;;;;5097886;28;20107;-72
2020/12/12 06:01:20;;;;;;;5.68;3.67;;;4.20;84.30;;;;;;5079980;28;20039;-72
2020/12/12 06:03:54;;;;;;;6.18;3.40;;;4.20;84.80;;;;;;5097840;28;20419;-72
2020/12/12 06:06:22;;;;;;;7.65;4.03;;;4.20;85.80;;;;;;5097843;28;20081;-72
2020/12/12 06:08:58;;;;;;;6.60;3.72;;;4.20;85.30;;;;;;5097307;28;20020;-72
2020/12/12 06:11:23;;;;;;;4.40;3.17;;;4.20;86.10;;;;;;5098121;28;20035;-72
2020/12/12 06:13:49;;;;;;;4.25;3.22;;;4.20;85.90;;;;;;5097611;28;20024;-71
2020/12/12 06:16:22;;;;;;;5.20;3.10;;;4.20;85.60;;;;;;5097687;28;20346;-71
2020/12/12 06:19:00;;;;;;;4.65;3.10;;;4.20;85.30;;;;;;5079670;28;20024;-70
2020/12/12 06:21:28;;;;;;;4.72;2.97;;;4.20;85.50;;;;;;5097583;28;20038;-70
2020/12/12 06:23:57;;;;;;;4.07;3.00;;;4.10;85.20;;;;;;5097601;28;20042;-70
2020/12/12 06:26:47;;;;;;;3.70;2.30;;;4.20;85.80;;;;;;5097393;28;20079;-70
2020/12/12 06:29:14;;;;;;;3.40;1.80;;;4.20;84.90;;;;;;5097419;28;20419;-70
2020/12/12 06:31:41;;;;;;;2.70;2.08;;;4.20;84.10;;;;;;5097409;28;20013;-70
2020/12/12 06:34:07;;;;;;;2.90;1.67;;;4.10;82.70;;;;;;5097659;28;20494;-70
2020/12/12 06:36:34;;;;;;;3.25;2.28;;;4.00;81.70;;;;;;5079365;28;20052;-70
2020/12/12 06:39:24;;;;;;;2.15;1.77;;;4.00;82.10;;;;;;5097357;28;20323;-70
2020/12/12 06:41:55;;;;;;;2.78;2.10;;;4.00;82.20;;;;;;5051894;28;20036;-70
2020/12/12 06:44:31;;;;;;;3.63;2.10;;;4.00;81.70;;;;;;5097191;28;20030;-70
2020/12/12 06:46:56;;;;;;;2.40;1.80;;;4.00;81.70;;;;;;5097252;28;20323;-70
2020/12/12 06:49:22;;;;;;;2.47;2.00;;;4.00;80.60;;;;;;5097080;28;20099;-70
2020/12/12 06:51:49;;;;;;;2.08;1.50;;;4.10;81.50;;;;;;5097089;28;20081;-70
2020/12/12 06:54:15;;;;;;;1.83;1.60;;;4.00;81.00;;;;;;5079127;28;20024;-70
2020/12/12 06:56:40;;;;;;;2.05;1.40;;;4.10;81.80;;;;;;5097000;28;20032;-70
2020/12/12 06:59:38;;;;;;;4.47;1.70;;;4.10;82.50;;;;;;5097087;28;20435;-70
2020/12/12 07:02:07;;;;;;;;;;;4.10;83.20;;;;;;5097414;28;20184;-70
2020/12/12 07:04:37;;;;;;;3.45;1.17;;;4.10;82.70;;;;;;5096888;28;20284;-70
2020/12/12 07:07:09;;;;;;;2.00;1.25;;;4.00;81.90;;;;;;5097082;28;20023;-70
2020/12/12 07:09:40;;;;;;;1.70;1.40;;;4.00;81.80;;;;;;5096616;28;20053;-70
2020/12/12 07:12:07;;;;;;;1.42;1.10;;;3.90;82.20;;;;;;5097068;28;20027;-70
2020/12/12 07:14:33;;;;;;;2.45;1.58;;;4.00;82.10;;;;;;5096771;28;20415;-71
2020/12/12 07:17:00;;;;;;;1.55;1.20;;;4.00;82.20;;;;;;5096801;28;20016;-70
2020/12/12 07:19:34;;;;;;;1.33;1.02;;;4.10;81.80;;;;;;5097796;28;20109;-71
2020/12/12 07:22:01;;;;;;;2.22;1.20;;;4.10;82.10;;;;;;5100691;28;20023;-72
2020/12/12 07:24:27;;;;;;;28.92;7.35;;;4.20;82.60;;;;;;5101279;28;20415;-72
2020/12/12 07:26:54;;;;;;;2.67;1.67;;;4.20;81.00;;;;;;5082814;28;20056;-70
2020/12/12 07:29:20;;;;;;;3.00;1.80;;;4.20;78.60;;;;;;5100881;28;20028;-70
2020/12/12 07:31:47;;;;;;;1.83;1.20;;;4.30;77.50;;;;;;5100810;28;20020;-70
2020/12/12 07:34:20;;;;;;;1.77;1.42;;;4.30;78.70;;;;;;5100729;28;20034;-70
2020/12/12 07:36:54;;;;;;;1.33;0.75;;;4.30;79.20;;;;;;5101155;28;20016;-70
2020/12/12 07:39:25;;;;;;;1.30;1.00;;;4.40;79.00;;;;;;5101004;28;20036;-70
2020/12/12 07:41:55;;;;;;;0.93;0.77;;;4.50;79.10;;;;;;5100936;28;20024;-70
2020/12/12 07:44:21;;;;;;;2.40;0.80;;;4.60;78.40;;;;;;5100599;28;20446;-70
2020/12/12 07:46:54;;;;;;;0.90;0.60;;;4.70;79.10;;;;;;5100526;28;20047;-70
2020/12/12 07:49:20;;;;;;;0.93;0.63;;;4.90;79.20;;;;;;5100639;28;20073;-70
2020/12/12 07:51:46;;;;;;;1.98;0.68;;;5.00;79.80;;;;;;5082511;28;20412;-70
2020/12/12 07:54:22;;;;;;;1.17;0.80;;;5.00;78.30;;;;;;5100749;28;20101;-70
2020/12/12 07:56:52;;;;;;;2.05;0.80;;;5.10;76.80;;;;;;5100942;28;20099;-70
2020/12/12 07:59:21;;;;;;;2.00;0.77;;;5.10;76.60;;;;;;5100417;28;20020;-70
2020/12/12 08:01:48;;;;;;;1.08;0.80;;;5.10;76.70;;;;;;5100308;28;20031;-70
2020/12/12 08:04:27;;;;;;;0.98;0.80;;;5.10;76.30;;;;;;5100191;28;20423;-70
2020/12/12 08:06:53;;;;;;;1.67;0.80;;;5.20;77.00;;;;;;5100443;28;20020;-70
2020/12/12 08:09:23;;;;;;;1.33;0.90;;;5.30;76.30;;;;;;5100628;28;20100;-70
2020/12/12 08:12:00;;;;;;;1.92;1.00;;;5.30;75.20;;;;;;5100593;28;20020;-70
2020/12/12 08:14:29;;;;;;;0.63;0.43;;;5.20;75.50;;;;;;5100049;28;20024;-70
2020/12/12 08:16:57;;;;;;;1.17;0.77;;;5.30;75.10;;;;;;5100147;28;20020;-70
2020/12/12 08:19:24;;;;;;;0.95;0.60;;;5.30;76.40;;;;;;5100270;28;20077;-70
2020/12/12 08:22:01;;;;;;;0.82;0.50;;;5.40;75.70;;;;;;5099891;28;20409;-70
2020/12/12 08:24:27;;;;;;;1.08;0.60;;;5.40;75.60;;;;;;5100146;28;20387;-70
2020/12/12 08:26:59;;;;;;;0.93;0.60;;;5.50;75.80;;;;;;5099080;28;20091;-70
2020/12/12 08:29:24;;;;;;;2.15;0.70;;;5.60;76.20;;;;;;5099737;28;20106;-70
2020/12/12 08:31:50;;;;;;;1.08;0.60;;;5.70;76.20;;;;;;5099246;28;20356;-70
2020/12/12 08:34:20;;;;;;;1.70;0.98;;;5.70;76.80;;;;;;5099787;28;20077;-71
2020/12/12 08:36:46;;;;;;;1.33;0.70;;;5.80;74.90;;;;;;5100046;28;20020;-69
2020/12/12 08:39:12;;;;;;;1.75;1.17;;;5.80;73.80;;;;;;5099622;28;20024;-69
2020/12/12 08:41:39;;;;;;;2.10;1.20;;;5.80;74.50;;;;;;5100073;28;20024;-69
2020/12/12 08:44:07;;;;;;;3.63;1.50;;;5.90;72.90;;;;;;5099374;28;20028;-71
2020/12/12 08:46:33;;;;;;;1.98;1.73;;;5.90;73.10;;;;;;5081480;28;20202;-69
2020/12/12 08:48:59;;;;;;;2.55;2.10;;;5.80;72.40;;;;;;5099555;28;20027;-69
2020/12/12 08:51:30;;;;;;;2.25;1.80;;;5.70;73.00;;;;;;5081365;28;20024;-70
2020/12/12 08:53:56;;;;;;;3.35;1.65;;;5.70;74.00;;;;;;5081285;28;20123;-69
2020/12/12 08:56:22;;;;;;;4.57;2.13;;;5.60;74.30;;;;;;5099256;28;20020;-69
2020/12/12 08:59:06;;;;;;;1.83;1.52;;;5.70;73.90;;;;;;5099269;28;20081;-70
2020/12/12 09:01:44;;;;;;;2.50;1.60;;;5.80;74.50;;;;;;5081203;28;20031;-70
2020/12/12 09:04:14;;;;;;;1.95;1.50;;;5.90;73.30;;;;;;5099401;28;20024;-70
2020/12/12 09:06:57;;;;;;;2.45;1.50;;;6.10;73.40;;;;;;5099061;28;20016;-70
2020/12/12 09:09:24;;;;;;;1.65;1.10;;;6.20;73.30;;;;;;5099239;28;20020;-70
2020/12/12 09:12:08;;;;;;;1.83;1.30;;;6.30;72.40;;;;;;5098938;28;20052;-70
2020/12/12 09:14:41;;;;;;;1.60;1.20;;;6.40;71.40;;;;;;5099108;28;20315;-70
2020/12/12 09:17:09;;;;;;;3.85;1.20;;;6.50;71.80;;;;;;5098840;28;20013;-70
2020/12/12 09:19:36;;;;;;;1.48;0.80;;;6.60;71.30;;;;;;5098837;28;20407;-70
2020/12/12 09:22:09;;;;;;;1.17;0.93;;;6.70;69.90;;;;;;5080782;28;20111;-70
2020/12/12 09:24:35;;;;;;;1.77;1.10;;;6.80;69.70;;;;;;5098932;28;20035;-70
2020/12/12 09:27:01;;;;;;;1.30;0.80;;;6.80;71.30;;;;;;5098644;28;20036;-70
2020/12/12 09:29:27;;;;;;;1.58;0.80;;;6.90;72.20;;;;;;5098548;28;20024;-70
2020/12/12 09:31:55;;;;;;;1.33;0.90;;;6.90;73.00;;;;;;5098632;28;20020;-70
2020/12/12 09:34:21;;;;;;;2.30;1.35;;;7.00;71.70;;;;;;5098440;28;20369;-70
2020/12/12 09:36:51;;;;;;;2.80;1.20;;;7.00;73.30;;;;;;5098445;28;20024;-70
2020/12/12 09:39:17;;;;;;;1.27;1.00;;;7.00;71.30;;;;;;5098691;28;20103;-70
2020/12/12 09:41:46;;;;;;;1.73;1.15;;;7.00;70.40;;;;;;5079745;28;20024;-71
2020/12/12 09:44:12;;;;;;;1.73;1.20;;;7.10;71.50;;;;;;5098182;28;20328;-70
2020/12/12 09:46:37;;;;;;;1.55;1.10;;;7.10;71.40;;;;;;5098260;28;20023;-71
2020/12/12 09:49:03;;;;;;;1.58;1.20;;;7.00;71.20;;;;;;5098202;28;20086;-70
2020/12/12 09:51:29;;;;;;;2.13;1.38;;;7.10;72.50;;;;;;5098165;28;20020;-71
2020/12/12 09:53:56;;;;;;;1.33;1.08;;;7.10;72.50;;;;;;5098221;28;20028;-70
2020/12/12 09:56:22;;;;;;;2.50;1.65;;;7.30;74.10;;;;;;5098105;28;20020;-70
2020/12/12 09:58:47;;;;;;;3.55;1.75;;;7.40;74.00;;;;;;5098029;28;20315;-71
2020/12/12 10:01:14;;;;;;;3.83;1.58;;;7.30;72.80;;;;;;5098172;28;20032;-71
2020/12/12 10:03:40;;;;;;;1.75;1.20;;;7.30;71.80;;;;;;5097955;28;20060;-72
2020/12/12 10:06:10;;;;;;;1.50;1.10;;;7.30;71.90;;;;;;5096249;28;20118;-70
2020/12/12 10:08:36;;;;;;;1.77;0.80;;;7.40;70.70;;;;;;5087091;28;20028;-72
2020/12/12 10:11:03;;;;;;;1.50;1.05;;;7.50;70.40;;;;;;5078526;28;20308;-71
2020/12/12 10:13:29;;;;;;;1.60;1.10;;;7.60;68.50;;;;;;5077466;28;20052;-72
2020/12/12 10:15:55;;;;;;;1.73;1.08;;;7.70;68.70;;;;;;5077298;28;20344;-72
2020/12/12 10:18:20;;;;;;;1.35;0.95;;;7.70;68.90;;;;;;5059703;28;20032;-72
2020/12/12 10:20:46;;;;;;;1.55;1.25;;;7.70;69.40;;;;;;5077353;28;20025;-72
2020/12/12 10:23:12;;;;;;;1.40;1.10;;;7.70;67.40;;;;;;5077261;28;20028;-72
2020/12/12 10:25:38;;;;;;;1.17;0.98;;;7.60;67.50;;;;;;5055890;28;20049;-72
2020/12/12 10:28:03;;;;;;;1.25;0.90;;;7.40;67.90;;;;;;5057278;28;20047;-70
2020/12/12 10:30:30;;;;;;;2.83;1.23;;;7.30;67.60;;;;;;5057455;28;20091;-70
2020/12/12 10:33:00;;;;;;;1.75;1.05;;;7.20;69.80;;;;;;5057070;28;20017;-70
2020/12/12 10:35:30;;;;;;;1.40;1.00;;;7.10;68.40;;;;;;5057427;28;20317;-70
2020/12/12 10:37:56;;;;;;;2.83;1.00;;;7.10;69.10;;;;;;5057047;28;20017;-70
2020/12/12 10:42:54;;;;;;;1.85;1.00;;;7.10;70.00;;;;;;5057005;28;20061;-70
2020/12/12 10:45:27;;;;;;;1.67;1.10;;;7.20;68.90;;;;;;5056913;28;20075;-70
2020/12/12 10:47:55;;;;;;;6.70;1.20;;;7.20;69.40;;;;;;5057003;28;20029;-70
2020/12/12 10:50:22;;;;;;;1.63;0.90;;;7.30;68.90;;;;;;5056923;28;20108;-70
2020/12/12 10:52:49;;;;;;;1.67;0.90;;;7.20;67.60;;;;;;5055724;28;20028;-70
2020/12/12 10:55:15;;;;;;;1.38;0.90;;;7.10;68.00;;;;;;5057176;28;20032;-70
2020/12/12 10:57:43;;;;;;;1.15;0.80;;;7.10;68.20;;;;;;5056730;28;20037;-71
2020/12/12 11:00:10;;;;;;;1.38;1.00;;;7.20;69.70;;;;;;5057358;28;20405;-71
2020/12/12 11:02:36;;;;;;;1.38;1.02;;;7.30;69.30;;;;;;5056718;28;20028;-71
2020/12/12 11:05:03;;;;;;;1.40;1.00;;;7.70;67.70;;;;;;5056686;28;20313;-71
2020/12/12 11:07:29;;;;;;;1.38;0.88;;;7.60;67.30;;;;;;5056631;28;20047;-71
2020/12/12 11:09:58;;;;;;;1.75;1.00;;;7.50;67.30;;;;;;5056597;28;20108;-70
2020/12/12 11:12:23;;;;;;;3.33;1.05;;;7.20;66.80;;;;;;5056657;28;20033;-69
2020/12/12 11:14:54;;;;;;;1.10;0.90;;;7.20;67.00;;;;;;5056936;28;20421;-69
2020/12/12 11:17:25;;;;;;;2.58;1.25;;;7.00;67.20;;;;;;5056585;28;20028;-70
2020/12/12 11:19:51;;;;;;;2.75;1.10;;;6.90;67.50;;;;;;5056716;28;20028;-71
2020/12/12 11:22:20;;;;;;;1.40;0.70;;;6.90;68.40;;;;;;5056843;28;20053;-71
2020/12/12 11:24:45;;;;;;;1.45;0.90;;;6.90;68.50;;;;;;5057914;28;20040;-71
2020/12/12 11:27:11;;;;;;;2.67;1.02;;;6.90;67.50;;;;;;5076702;28;20529;-71
2020/12/12 11:29:39;;;;;;;1.75;0.80;;;6.90;67.60;;;;;;5076439;28;20420;-71
2020/12/12 11:32:09;;;;;;;0.93;0.63;;;6.90;68.10;;;;;;5076452;28;20050;-71
2020/12/12 11:34:39;;;;;;;1.23;0.73;;;6.80;67.60;;;;;;5076539;28;20025;-71
2020/12/12 11:47:31;;;;;;;1.40;0.90;;;6.70;67.10;;;;;;5076391;28;20399;-72
2020/12/12 11:49:57;;;;;;;1.75;1.52;;;6.60;67.50;;;;;;5076332;28;20021;-69
2020/12/12 11:52:22;;;;;;;1.70;1.15;;;6.70;67.70;;;;;;5076447;28;20032;-70
2020/12/12 11:54:48;;;;;;;1.42;0.80;;;6.80;68.20;;;;;;5076637;28;20017;-71
2020/12/12 11:57:15;;;;;;;2.08;1.20;;;6.90;66.90;;;;;;5076207;28;20068;-69
2020/12/12 11:59:43;;;;;;;1.38;1.00;;;7.10;67.30;;;;;;5076268;28;20016;-70
2020/12/12 12:02:12;;;;;;;2.08;1.10;;;7.20;66.50;;;;;;5076208;28;20431;-69
2020/12/12 12:04:38;;;;;;;2.60;1.42;;;7.30;65.50;;;;;;5076105;28;20518;-70
2020/12/12 12:07:06;;;;;;;2.05;1.60;;;7.10;64.70;;;;;;5079504;28;20036;-71
2020/12/12 12:09:36;;;;;;;1.55;1.33;;;6.70;65.70;;;;;;5079863;28;20340;-69
2020/12/12 12:12:04;;;;;;;2.40;1.92;;;6.40;66.30;;;;;;5080082;28;20017;-69
2020/12/12 12:14:30;;;;;;;3.58;1.95;;;6.20;67.80;;;;;;5079709;28;20431;-71
2020/12/12 12:16:56;;;;;;;3.10;2.47;;;6.10;69.10;;;;;;5079836;28;20020;-69
2020/12/12 12:19:22;;;;;;;3.60;2.88;;;6.10;69.10;;;;;;5079718;28;20033;-70
2020/12/12 12:21:49;;;;;;;3.60;2.50;;;6.10;69.10;;;;;;5079649;28;20028;-70
2020/12/12 12:24:16;;;;;;;3.67;2.60;;;6.00;69.50;;;;;;5079566;28;20032;-70
2020/12/12 12:26:48;;;;;;;3.10;2.67;;;6.00;69.50;;;;;;5079480;28;20344;-70
2020/12/12 12:29:15;;;;;;;4.72;2.35;;;6.00;69.60;;;;;;5079452;28;20025;-70
2020/12/12 12:31:42;;;;;;;3.08;2.17;;;5.90;70.20;;;;;;5079438;28;20044;-71
2020/12/12 12:34:08;;;;;;;2.20;1.75;;;5.90;70.70;;;;;;5079332;28;20074;-71
2020/12/12 12:36:35;;;;;;;4.05;1.90;;;5.80;70.40;;;;;;5079365;28;20033;-70
2020/12/12 12:39:01;;;;;;;2.22;1.80;;;5.90;72.30;;;;;;5079391;28;20074;-70
2020/12/12 12:41:29;;;;;;;2.55;1.83;;;6.00;72.60;;;;;;5079304;28;20059;-70
2020/12/12 12:44:00;;;;;;;2.15;1.80;;;6.10;74.10;;;;;;5079142;28;20412;-70
2020/12/12 12:46:29;;;;;;;2.40;1.75;;;6.20;75.00;;;;;;5079427;28;20024;-70
2020/12/12 12:48:56;;;;;;;3.10;2.50;;;6.20;75.50;;;;;;5079107;28;20087;-70
2020/12/12 12:51:21;;;;;;;3.22;2.80;;;6.30;73.60;;;;;;5079996;28;20503;-70
2020/12/12 12:53:47;;;;;;;3.10;2.67;;;6.30;73.80;;;;;;5078926;28;20033;-70
2020/12/12 12:56:13;;;;;;;4.13;3.13;;;6.30;74.10;;;;;;5079116;28;20476;-70
2020/12/12 12:58:42;;;;;;;3.97;3.13;;;6.30;75.60;;;;;;5078997;28;20021;-70
2020/12/12 13:01:07;;;;;;;3.20;2.83;;;6.30;75.00;;;;;;5078941;28;20039;-70
2020/12/12 13:03:33;;;;;;;4.60;3.40;;;6.30;74.60;;;;;;5078857;28;20336;-70
2020/12/12 13:06:00;;;;;;;4.10;3.03;;;6.30;76.90;;;;;;5061048;28;20078;-70
2020/12/12 13:08:26;;;;;;;4.18;2.92;;;6.30;75.60;;;;;;5078776;28;20029;-70
2020/12/12 13:10:51;;;;;;;3.08;2.63;;;6.30;74.20;;;;;;5078745;28;20031;-70
2020/12/12 13:13:18;;;;;;;3.53;3.00;;;6.30;74.60;;;;;;5060986;28;20020;-71